Terminal Aerodrome Forecast
Issued by NWS Omaha/Valley, NE

Home | Current Version | Previous Version | Text Only | Print | Product List | Glossary On
Versions: 1 2 3 4 5 6 7 8 9 10 11 12 13 14 15 16 17 18 19 20 21 22 23 24 25 26 27 28 29 30
000
FTUS43 KOAX 141720
TAFOMA
TAF
KOMA 141720Z 1418/1518 32008KT P6SM BKN035 OVC100
     FM142100 32009KT P6SM OVC035
     FM150400 32006KT P6SM BKN025 OVC040
     FM150900 29005KT P6SM SCT025
     FM151400 22007KT P6SM SCT090=

USA.gov is the U.S. government's official web portal to all federal, state and local government web resources and services.